createdAt,value
2022-12-20T00:00:51.467Z,97009.09
2022-12-20T00:03:17.984Z,97007.41
2022-12-20T00:05:44.786Z,97013.56
2022-12-20T00:08:11.322Z,97012.00
2022-12-20T00:10:38.298Z,97007.03
2022-12-20T00:13:04.836Z,97000.78
2022-12-20T00:15:31.590Z,97010.22
2022-12-20T00:17:58.464Z,97003.88
2022-12-20T00:20:25.579Z,97006.16
2022-12-20T00:22:52.084Z,97012.78
2022-12-20T00:25:20.308Z,97016.94
2022-12-20T00:27:50.109Z,97001.31
2022-12-20T00:30:16.978Z,96994.38
2022-12-20T00:32:43.993Z,96996.00
2022-12-20T00:35:10.510Z,96992.50
2022-12-20T00:37:36.889Z,96991.53
2022-12-20T00:40:04.259Z,96994.00
2022-12-20T00:42:30.653Z,96992.13
2022-12-20T00:44:57.031Z,96997.13
2022-12-20T00:47:23.438Z,96996.28
2022-12-20T00:49:49.854Z,96996.28
2022-12-20T00:52:16.239Z,96995.47
2022-12-20T00:54:42.623Z,96993.59
2022-12-20T00:57:09.001Z,96986.72
2022-12-20T00:59:35.471Z,96988.59
2022-12-20T01:02:02.012Z,96976.91
2022-12-20T01:04:28.686Z,96981.06
2022-12-20T01:06:55.078Z,96971.34
2022-12-20T01:09:21.469Z,96974.44
2022-12-20T01:11:47.885Z,96975.16
2022-12-20T01:14:15.446Z,96968.31
2022-12-20T01:16:43.573Z,96968.22
2022-12-20T01:19:11.220Z,96979.22
2022-12-20T01:21:39.960Z,96968.69
2022-12-20T01:24:06.475Z,96962.44
2022-12-20T01:26:33.099Z,96961.00
2022-12-20T01:29:00.281Z,96953.19
2022-12-20T01:31:27.640Z,96962.66
2022-12-20T01:33:54.201Z,96949.31
2022-12-20T01:36:22.054Z,96948.59
2022-12-20T01:38:48.488Z,96943.41
2022-12-20T01:41:16.924Z,96944.81
2022-12-20T01:43:53.870Z,96939.72
2022-12-20T01:46:21.869Z,96932.88
2022-12-20T01:48:53.925Z,96932.63
2022-12-20T01:51:21.077Z,96929.78
2022-12-20T01:53:48.964Z,96928.88
2022-12-20T01:56:15.392Z,96915.63
2022-12-20T01:58:42.221Z,96926.50
2022-12-20T02:01:08.747Z,96927.84
2022-12-20T02:03:35.371Z,96917.19
2022-12-20T02:06:14.043Z,96909.25
2022-12-20T02:08:40.502Z,96909.97
2022-12-20T02:11:19.873Z,96908.31
2022-12-20T02:13:49.384Z,96906.66
2022-12-20T02:16:21.084Z,96910.09
2022-12-20T02:19:03.553Z,96905.25
2022-12-20T02:21:32.908Z,96908.53
2022-12-20T02:24:18.023Z,96912.44
2022-12-20T02:26:56.765Z,96908.69
2022-12-20T02:29:40.444Z,96912.31
2022-12-20T02:32:10.153Z,96904.63
2022-12-20T02:34:37.483Z,96910.44
2022-12-20T02:37:04.402Z,96898.88
2022-12-20T02:39:31.573Z,96899.78
2022-12-20T02:42:01.570Z,96904.19
2022-12-20T02:44:48.433Z,96898.88
2022-12-20T02:47:18.062Z,96891.72
2022-12-20T02:49:46.168Z,96884.66
2022-12-20T02:52:13.974Z,96890.44
2022-12-20T02:54:40.565Z,96886.19
2022-12-20T02:57:29.996Z,96887.84
2022-12-20T03:00:01.694Z,96883.22
2022-12-20T03:02:28.809Z,96882.06
2022-12-20T03:04:57.182Z,96879.44
2022-12-20T03:07:23.621Z,96881.47
2022-12-20T03:09:50.011Z,96885.38
2022-12-20T03:12:16.846Z,96885.59
2022-12-20T03:14:43.575Z,96888.19
2022-12-20T03:17:10.092Z,96878.59
2022-12-20T03:19:36.652Z,96881.81
2022-12-20T03:22:03.139Z,96867.03
2022-12-20T03:24:29.523Z,96872.09
2022-12-20T03:26:56.003Z,96876.22
2022-12-20T03:29:22.397Z,96878.72
2022-12-20T03:31:48.757Z,96874.22
2022-12-20T03:34:15.494Z,96879.41
2022-12-20T03:36:41.934Z,96864.75
2022-12-20T03:39:08.362Z,96863.09
2022-12-20T03:41:34.949Z,96859.44
2022-12-20T03:44:01.388Z,96857.53
2022-12-20T03:46:28.112Z,96852.19
2022-12-20T03:48:54.754Z,96847.72
2022-12-20T03:51:21.132Z,96839.91
2022-12-20T03:53:47.505Z,96836.31
2022-12-20T03:56:14.174Z,96836.91
2022-12-20T03:58:40.723Z,96828.84
2022-12-20T04:01:21.091Z,96829.56
2022-12-20T04:03:47.693Z,96821.75
2022-12-20T04:06:14.168Z,96842.34
2022-12-20T04:08:40.608Z,96831.91
2022-12-20T04:11:16.206Z,96834.28
2022-12-20T04:13:43.458Z,96836.31
2022-12-20T04:16:10.122Z,96840.94
2022-12-20T04:18:36.594Z,96850.16
2022-12-20T04:21:03.581Z,96861.53
2022-12-20T04:23:30.060Z,96864.50
2022-12-20T04:25:56.430Z,96849.94
2022-12-20T04:28:22.907Z,96850.06
2022-12-20T04:30:49.352Z,96841.28
2022-12-20T04:33:15.744Z,96846.16
2022-12-20T04:35:42.260Z,96852.16
2022-12-20T04:38:08.740Z,96845.31
2022-12-20T04:40:35.122Z,96840.44
2022-12-20T04:43:01.501Z,96847.53
2022-12-20T04:45:27.956Z,96849.81
2022-12-20T04:47:54.360Z,96845.97
2022-12-20T04:50:21.033Z,96837.47
2022-12-20T04:53:05.726Z,96828.13
2022-12-20T04:55:36.489Z,96828.72
2022-12-20T04:58:07.515Z,96829.41
2022-12-20T05:00:34.334Z,96823.25
2022-12-20T05:03:01.163Z,96822.53
2022-12-20T05:05:28.000Z,96823.25
2022-12-20T05:07:55.083Z,96822.06
2022-12-20T05:10:21.565Z,96820.03
2022-12-20T05:12:47.956Z,96814.56
2022-12-20T05:15:14.472Z,96816.00
2022-12-20T05:17:40.914Z,96808.72
2022-12-20T05:20:07.631Z,96811.31
2022-12-20T05:22:52.977Z,96804.22
2022-12-20T05:25:37.766Z,96807.78
2022-12-20T05:28:04.255Z,96803.41
2022-12-20T05:30:30.649Z,96799.25
2022-12-20T05:32:57.049Z,96813.00
2022-12-20T05:35:23.455Z,96808.63
2022-12-20T05:37:50.078Z,96805.44
2022-12-20T05:40:17.693Z,96805.19
2022-12-20T05:42:44.718Z,96795.22
2022-12-20T05:45:11.283Z,96801.47
2022-12-20T05:47:39.055Z,96798.44
2022-12-20T05:50:05.944Z,96802.56
2022-12-20T05:52:32.344Z,96793.91
2022-12-20T05:54:58.789Z,96796.28
2022-12-20T05:57:25.161Z,96801.94
2022-12-20T05:59:51.580Z,96807.84
2022-12-20T06:02:18.127Z,96803.47
2022-12-20T06:04:44.580Z,96807.16
2022-12-20T06:07:11.096Z,96806.69
2022-12-20T06:09:37.471Z,96806.56
2022-12-20T06:12:03.983Z,96806.94
2022-12-20T06:14:30.443Z,96804.47
2022-12-20T06:16:56.895Z,96810.41
2022-12-20T06:19:23.443Z,96808.03
2022-12-20T06:21:49.874Z,96813.25
2022-12-20T06:24:16.313Z,96805.22
2022-12-20T06:26:42.812Z,96800.84
2022-12-20T06:29:10.445Z,96805.78
2022-12-20T06:31:36.888Z,96800.22
2022-12-20T06:34:03.371Z,96806.94
2022-12-20T06:36:29.746Z,96805.31
2022-12-20T06:38:56.105Z,96799.50
2022-12-20T06:41:22.498Z,96804.72
2022-12-20T06:43:49.023Z,96811.00
2022-12-20T06:46:15.484Z,96811.84
2022-12-20T06:48:42.047Z,96805.47
2022-12-20T06:51:08.472Z,96803.13
2022-12-20T06:53:34.879Z,96791.97
2022-12-20T06:56:01.277Z,96806.44
2022-12-20T06:58:27.732Z,96811.38
2022-12-20T07:00:54.496Z,96811.84
2022-12-20T07:03:21.105Z,96817.19
2022-12-20T07:05:54.036Z,96811.13
2022-12-20T07:08:21.205Z,96811.59
2022-12-20T07:10:47.692Z,96813.47
2022-12-20T07:13:14.298Z,96815.75
2022-12-20T07:15:40.674Z,96813.28
2022-12-20T07:18:07.092Z,96798.34
2022-12-20T07:20:33.577Z,96807.69
2022-12-20T07:23:00.218Z,96802.47
2022-12-20T07:25:26.638Z,96803.56
2022-12-20T07:27:53.085Z,96804.28
2022-12-20T07:30:20.448Z,96798.69
2022-12-20T07:32:46.962Z,96800.44
2022-12-20T07:35:14.199Z,96802.25
2022-12-20T07:37:40.739Z,96808.41
2022-12-20T07:40:08.055Z,96807.81
2022-12-20T07:42:38.042Z,96801.66
2022-12-20T07:45:07.088Z,96797.84
2022-12-20T07:47:35.982Z,96794.75
2022-12-20T07:50:03.102Z,96790.31
2022-12-20T07:52:29.960Z,96791.22
2022-12-20T07:55:01.531Z,96784.41
2022-12-20T07:57:31.082Z,96779.81
2022-12-20T07:59:59.323Z,96788.63
2022-12-20T08:02:29.384Z,96780.09
2022-12-20T08:04:56.145Z,96783.78
2022-12-20T08:07:22.968Z,96784.84
2022-12-20T08:09:49.676Z,96776.09
2022-12-20T08:12:17.763Z,96774.56
2022-12-20T08:14:44.574Z,96773.72
2022-12-20T08:17:11.951Z,96775.41
2022-12-20T08:19:38.859Z,96774.88
2022-12-20T08:22:06.319Z,96764.44
2022-12-20T08:24:33.523Z,96774.38
2022-12-20T08:26:59.959Z,96774.59
2022-12-20T08:29:26.349Z,96769.16
2022-12-20T08:31:52.728Z,96776.00
2022-12-20T08:34:19.161Z,96777.78
2022-12-20T08:36:45.569Z,96783.41
2022-12-20T08:39:11.973Z,96773.34
2022-12-20T08:41:38.933Z,96774.59
2022-12-20T08:44:05.730Z,96776.84
2022-12-20T08:46:32.132Z,96773.84
2022-12-20T08:48:58.637Z,96770.28
2022-12-20T08:51:25.115Z,96771.25
2022-12-20T08:53:52.233Z,96775.25
2022-12-20T08:56:18.802Z,96765.41
2022-12-20T08:58:45.307Z,96762.66
2022-12-20T09:01:13.824Z,96779.69
2022-12-20T09:03:40.606Z,96780.38
2022-12-20T09:06:10.425Z,96782.56
2022-12-20T09:08:37.726Z,96781.97
2022-12-20T09:11:05.743Z,96776.63
2022-12-20T09:13:34.412Z,96783.25
2022-12-20T09:16:04.501Z,96769.81
2022-12-20T09:18:31.479Z,96762.41
2022-12-20T09:21:04.691Z,96766.44
2022-12-20T09:23:31.971Z,96757.53
2022-12-20T09:26:01.909Z,96754.78
2022-12-20T09:28:28.333Z,96755.59
2022-12-20T09:30:57.807Z,96752.75
2022-12-20T09:33:24.249Z,96743.81
2022-12-20T09:35:50.681Z,96752.91
2022-12-20T09:38:17.095Z,96744.09
2022-12-20T09:40:51.605Z,96756.22
2022-12-20T09:43:18.359Z,96756.22
2022-12-20T09:45:47.326Z,96752.06
2022-12-20T09:48:18.873Z,96749.72
2022-12-20T09:50:58.052Z,96743.81
2022-12-20T09:53:33.916Z,96739.94
2022-12-20T09:56:20.600Z,96729.19
2022-12-20T09:59:02.147Z,96730.31
2022-12-20T10:01:38.075Z,96727.69
2022-12-20T10:04:33.944Z,96721.25
2022-12-20T10:07:03.712Z,96711.09
2022-12-20T10:09:30.184Z,96714.97
2022-12-20T10:12:15.443Z,96712.78
2022-12-20T10:15:00.313Z,96708.00
2022-12-20T10:17:32.564Z,96702.63
2022-12-20T10:20:19.093Z,96709.81
2022-12-20T10:22:49.394Z,96714.75
2022-12-20T10:25:20.336Z,96703.09
2022-12-20T10:27:48.900Z,96687.84
2022-12-20T10:30:21.136Z,96692.81
2022-12-20T10:32:49.363Z,96688.00
2022-12-20T10:35:16.081Z,96675.22
2022-12-20T10:38:09.221Z,96672.31
2022-12-20T10:43:36.566Z,96667.25
2022-12-20T10:46:07.316Z,96665.88
2022-12-20T10:48:35.313Z,96665.31
2022-12-20T10:51:15.885Z,96664.94
2022-12-20T10:54:03.225Z,96664.66
2022-12-20T10:56:34.206Z,96659.00
2022-12-20T10:59:02.316Z,96663.00
2022-12-20T11:01:33.788Z,96664.78
2022-12-20T11:04:04.806Z,96659.81
2022-12-20T11:06:37.438Z,96668.34
2022-12-20T11:09:22.598Z,96658.19
2022-12-20T11:11:57.864Z,96667.25
2022-12-20T11:14:24.695Z,96660.25
2022-12-20T11:16:53.395Z,96661.22
2022-12-20T11:19:19.856Z,96651.56
2022-12-20T11:21:46.280Z,96644.00
2022-12-20T11:24:17.938Z,96641.97
2022-12-20T11:26:50.153Z,96645.53
2022-12-20T11:29:19.611Z,96638.53
2022-12-20T11:31:49.087Z,96632.88
2022-12-20T11:34:34.345Z,96630.69
2022-12-20T11:37:19.379Z,96623.81
2022-12-20T11:39:57.768Z,96624.91
2022-12-20T11:42:24.359Z,96619.41
2022-12-20T11:45:06.603Z,96621.22
2022-12-20T11:47:53.684Z,96624.75
2022-12-20T11:50:38.606Z,96614.47
2022-12-20T11:53:10.804Z,96618.31
2022-12-20T11:55:41.745Z,96590.81
2022-12-20T11:58:19.744Z,96577.47
2022-12-20T12:01:07.094Z,96591.63
2022-12-20T12:04:09.033Z,96588.19
2022-12-20T12:06:37.891Z,96604.03
2022-12-20T12:09:36.578Z,96588.59
2022-12-20T12:12:11.706Z,96592.06
2022-12-20T12:14:56.903Z,96603.72
2022-12-20T12:17:39.764Z,96594.53
2022-12-20T12:20:18.196Z,96596.44
2022-12-20T12:22:45.461Z,96592.31
2022-12-20T12:25:15.536Z,96588.03
2022-12-20T12:27:42.082Z,96578.00
2022-12-20T12:30:12.127Z,96573.47
2022-12-20T12:32:45.147Z,96580.91
2022-12-20T12:35:18.677Z,96597.66
2022-12-20T12:38:03.668Z,96590.25
2022-12-20T12:40:52.482Z,96593.25
2022-12-20T12:43:37.943Z,96600.94
2022-12-20T12:46:14.222Z,96583.91
2022-12-20T12:49:07.489Z,96590.09
2022-12-20T12:51:36.267Z,96591.34
2022-12-20T12:54:22.326Z,96598.91
2022-12-20T12:56:49.988Z,96600.41
2022-12-20T12:59:22.752Z,96589.28
2022-12-20T13:01:51.738Z,96592.44
2022-12-20T13:04:19.681Z,96583.53
2022-12-20T13:06:48.897Z,96586.78
2022-12-20T13:09:18.219Z,96588.03
2022-12-20T13:11:47.506Z,96588.28
2022-12-20T13:14:24.671Z,96590.22
2022-12-20T13:19:38.985Z,96587.31
2022-12-20T13:22:17.392Z,96584.53
2022-12-20T13:24:48.662Z,96576.69
2022-12-20T13:27:18.028Z,96574.78
2022-12-20T13:29:56.623Z,96562.38
2022-12-20T13:32:42.096Z,96560.47
2022-12-20T13:35:29.617Z,96570.38
2022-12-20T13:38:05.827Z,96569.72
2022-12-20T13:40:35.450Z,96576.47
2022-12-20T13:43:25.281Z,96564.66
2022-12-20T13:46:11.941Z,96557.38
2022-12-20T13:48:38.374Z,96562.63
2022-12-20T13:51:05.716Z,96564.69
2022-12-20T13:53:32.247Z,96574.28
2022-12-20T13:55:58.724Z,96571.25
2022-12-20T13:58:26.046Z,96563.28
2022-12-20T14:00:53.417Z,96554.47
2022-12-20T14:03:25.284Z,96552.81
2022-12-20T14:05:59.669Z,96544.72
2022-12-20T14:08:28.677Z,96538.94
2022-12-20T14:10:55.193Z,96549.00
2022-12-20T14:13:23.216Z,96543.22
2022-12-20T14:15:50.234Z,96541.97
2022-12-20T14:18:20.940Z,96543.50
2022-12-20T14:20:49.388Z,96537.13
2022-12-20T14:23:20.923Z,96534.28
2022-12-20T14:25:55.379Z,96522.53
2022-12-20T14:28:35.621Z,96527.66
2022-12-20T14:31:03.451Z,96530.41
2022-12-20T14:33:40.238Z,96522.28
2022-12-20T14:36:15.555Z,96521.47
2022-12-20T14:38:43.129Z,96518.72
2022-12-20T14:41:28.416Z,96530.31
2022-12-20T14:43:59.494Z,96535.41
2022-12-20T14:46:26.102Z,96528.50
2022-12-20T14:49:25.319Z,96527.84
2022-12-20T14:51:53.025Z,96531.00
2022-12-20T14:55:05.789Z,96523.16
2022-12-20T14:57:20.135Z,96536.06
2022-12-20T14:59:56.327Z,96545.44
2022-12-20T15:02:39.147Z,96537.19
2022-12-20T15:05:28.984Z,96542.97
2022-12-20T15:07:55.418Z,96533.91
2022-12-20T15:10:23.630Z,96526.63
2022-12-20T15:12:50.674Z,96525.78
2022-12-20T15:15:29.421Z,96528.66
2022-12-20T15:17:56.363Z,96528.25
2022-12-20T15:20:22.804Z,96521.00
2022-12-20T15:22:49.263Z,96527.59
2022-12-20T15:25:16.529Z,96523.22
2022-12-20T15:27:43.339Z,96528.28
2022-12-20T15:30:16.410Z,96518.69
2022-12-20T15:32:54.479Z,96526.38
2022-12-20T15:35:21.912Z,96517.97
2022-12-20T15:37:48.331Z,96507.78
2022-12-20T15:40:15.044Z,96509.84
2022-12-20T15:42:42.910Z,96513.94
2022-12-20T15:45:13.145Z,96518.22
2022-12-20T15:47:39.614Z,96513.94
2022-12-20T15:50:06.564Z,96514.22
2022-12-20T15:52:33.513Z,96507.91
2022-12-20T15:54:59.999Z,96521.84
2022-12-20T15:57:26.791Z,96520.03
2022-12-20T16:00:03.242Z,96514.41
2022-12-20T16:02:31.218Z,96514.41
2022-12-20T16:04:58.911Z,96504.94
2022-12-20T16:07:26.367Z,96506.28
2022-12-20T16:09:52.862Z,96511.81
2022-12-20T16:12:23.267Z,96502.63
2022-12-20T16:14:49.902Z,96495.59
2022-12-20T16:17:16.626Z,96505.88
2022-12-20T16:19:43.639Z,96511.66
2022-12-20T16:22:17.211Z,96509.19
2022-12-20T16:24:43.957Z,96502.19
2022-12-20T16:27:10.567Z,96505.88
2022-12-20T16:29:37.349Z,96494.91
2022-12-20T16:32:08.053Z,96497.66
2022-12-20T16:34:34.519Z,96503.13
2022-12-20T16:37:01.005Z,96493.53
2022-12-20T16:39:27.429Z,96489.97
2022-12-20T16:41:54.539Z,96507.41
2022-12-20T16:44:21.086Z,96502.59
2022-12-20T16:46:47.655Z,96507.16
2022-12-20T16:49:20.014Z,96517.03
2022-12-20T16:51:48.443Z,96506.16
2022-12-20T16:54:20.311Z,96502.03
2022-12-20T16:56:47.698Z,96496.84
2022-12-20T16:59:20.848Z,96503.69
2022-12-20T17:01:49.481Z,96489.16
2022-12-20T17:04:17.573Z,96496.53
2022-12-20T17:06:44.510Z,96489.41
2022-12-20T17:09:11.067Z,96488.03
2022-12-20T17:11:37.770Z,96509.59
2022-12-20T17:14:08.895Z,96504.81
2022-12-20T17:16:39.468Z,96505.88
2022-12-20T17:19:06.038Z,96492.72
2022-12-20T17:24:25.230Z,96500.13
2022-12-20T17:26:51.995Z,96494.63
2022-12-20T17:29:18.623Z,96496.16
2022-12-20T17:31:46.503Z,96499.56
2022-12-20T17:34:26.713Z,96494.63
2022-12-20T17:36:54.358Z,96492.72
2022-12-20T17:39:21.728Z,96495.19
2022-12-20T17:41:49.444Z,96496.25
2022-12-20T17:44:20.601Z,96484.75
2022-12-20T17:46:47.371Z,96474.84
2022-12-20T17:49:14.409Z,96468.28
2022-12-20T17:51:40.925Z,96459.19
2022-12-20T17:54:14.493Z,96445.06
2022-12-20T17:56:40.947Z,96432.00
2022-12-20T17:59:09.422Z,96434.75
2022-12-20T18:01:36.144Z,96450.13
2022-12-20T18:04:06.784Z,96450.00
2022-12-20T18:06:34.339Z,96460.00
2022-12-20T18:09:00.933Z,96451.22
2022-12-20T18:11:28.539Z,96457.53
2022-12-20T18:13:56.416Z,96455.34
2022-12-20T18:16:25.199Z,96446.56
2022-12-20T18:18:53.328Z,96444.25
2022-12-20T18:21:20.048Z,96430.09
2022-12-20T18:23:47.103Z,96426.94
2022-12-20T18:26:21.332Z,96417.72
2022-12-20T18:28:49.134Z,96417.88
2022-12-20T18:31:20.366Z,96417.31
2022-12-20T18:33:51.100Z,96430.94
2022-12-20T18:36:23.099Z,96428.19
2022-12-20T18:38:50.426Z,96424.44
2022-12-20T18:41:18.861Z,96419.38
2022-12-20T18:43:45.341Z,96404.28
2022-12-20T18:46:19.172Z,96392.75
2022-12-20T18:48:45.935Z,96397.69
2022-12-20T18:51:13.636Z,96389.16
2022-12-20T18:53:41.073Z,96401.78
2022-12-20T18:56:18.330Z,96397.56
2022-12-20T18:58:45.813Z,96391.63
2022-12-20T19:01:15.383Z,96393.84
2022-12-20T19:03:42.088Z,96405.22
2022-12-20T19:06:08.775Z,96402.63
2022-12-20T19:08:35.245Z,96408.13
2022-12-20T19:11:05.860Z,96405.66
2022-12-20T19:13:32.373Z,96402.78
2022-12-20T19:16:02.652Z,96394.94
2022-12-20T19:18:29.355Z,96396.19
2022-12-20T19:20:56.071Z,96397.13
2022-12-20T19:23:22.550Z,96404.16
2022-12-20T19:25:49.038Z,96404.56
2022-12-20T19:28:15.475Z,96395.50
2022-12-20T19:30:41.967Z,96393.59
2022-12-20T19:33:08.434Z,96393.84
2022-12-20T19:38:21.384Z,96391.53
2022-12-20T19:40:52.060Z,96388.63
2022-12-20T19:43:18.750Z,96373.53
2022-12-20T19:45:45.288Z,96366.94
2022-12-20T19:48:11.777Z,96370.53
2022-12-20T19:50:38.330Z,96366.41
2022-12-20T19:53:05.578Z,96368.56
2022-12-20T19:55:32.326Z,96371.06
2022-12-20T19:57:58.758Z,96370.25
2022-12-20T20:00:27.410Z,96378.22
2022-12-20T20:02:54.041Z,96382.31
2022-12-20T20:05:20.713Z,96383.16
2022-12-20T20:07:47.238Z,96381.50
2022-12-20T20:10:13.707Z,96385.75
2022-12-20T20:12:40.207Z,96372.88
2022-12-20T20:15:07.052Z,96380.38
2022-12-20T20:17:33.502Z,96368.88
2022-12-20T20:19:59.964Z,96364.75
2022-12-20T20:22:26.454Z,96357.63
2022-12-20T20:24:52.949Z,96352.53
2022-12-20T20:27:19.449Z,96353.91
2022-12-20T20:29:48.504Z,96348.81
2022-12-20T20:32:15.318Z,96359.13
2022-12-20T20:34:41.790Z,96355.16
2022-12-20T20:37:09.281Z,96353.50
2022-12-20T20:39:35.857Z,96358.72
2022-12-20T20:42:02.371Z,96351.72
2022-12-20T20:44:28.847Z,96360.63
2022-12-20T20:46:55.379Z,96353.22
2022-12-20T20:49:21.896Z,96355.13
2022-12-20T20:51:48.327Z,96351.97
2022-12-20T20:54:15.344Z,96358.56
2022-12-20T20:56:41.815Z,96359.38
2022-12-20T20:59:13.467Z,96358.56
2022-12-20T21:01:43.901Z,96351.00
2022-12-20T21:04:10.426Z,96357.88
2022-12-20T21:06:41.009Z,96357.19
2022-12-20T21:09:08.778Z,96340.19
2022-12-20T21:11:37.007Z,96354.72
2022-12-20T21:14:03.765Z,96336.75
2022-12-20T21:16:30.354Z,96337.56
2022-12-20T21:18:57.829Z,96330.84
2022-12-20T21:21:25.115Z,96334.41
2022-12-20T21:23:51.701Z,96326.59
2022-12-20T21:26:18.946Z,96321.38
2022-12-20T21:28:45.736Z,96322.31
2022-12-20T21:31:14.119Z,96319.44
2022-12-20T21:33:40.907Z,96323.00
2022-12-20T21:36:08.977Z,96324.94
2022-12-20T21:38:35.416Z,96320.41
2022-12-20T21:41:05.894Z,96316.16
2022-12-20T21:43:32.806Z,96314.91
2022-12-20T21:45:59.465Z,96299.63
2022-12-20T21:48:26.454Z,96298.84
2022-12-20T21:51:00.156Z,96298.00
2022-12-20T21:53:27.058Z,96305.44
2022-12-20T21:55:54.168Z,96298.97
2022-12-20T21:58:20.636Z,96292.34
2022-12-20T22:00:52.485Z,96297.44
2022-12-20T22:03:21.753Z,96287.69
2022-12-20T22:05:49.071Z,96283.16
2022-12-20T22:08:15.721Z,96286.44
2022-12-20T22:10:42.679Z,96280.09
2022-12-20T22:13:10.261Z,96285.47
2022-12-20T22:15:37.801Z,96279.56
2022-12-20T22:18:04.914Z,96273.00
2022-12-20T22:20:31.480Z,96270.16
2022-12-20T22:22:57.959Z,96269.47
2022-12-20T22:25:24.470Z,96273.44
2022-12-20T22:27:51.602Z,96270.69
2022-12-20T22:30:18.109Z,96262.03
2022-12-20T22:32:44.602Z,96256.66
2022-12-20T22:35:11.152Z,96253.75
2022-12-20T22:37:37.691Z,96247.22
2022-12-20T22:40:05.117Z,96256.97
2022-12-20T22:42:31.587Z,96254.50
2022-12-20T22:44:58.007Z,96252.16
2022-12-20T22:50:08.887Z,96244.66
2022-12-20T22:52:35.316Z,96240.38
2022-12-20T22:55:01.930Z,96229.28
2022-12-20T22:57:28.375Z,96230.81
2022-12-20T22:59:58.774Z,96225.06
2022-12-20T23:02:26.037Z,96223.53
2022-12-20T23:04:52.960Z,96221.34
2022-12-20T23:07:19.957Z,96220.81
2022-12-20T23:09:47.102Z,96217.38
2022-12-20T23:12:32.249Z,96224.78
2022-12-20T23:15:17.200Z,96208.06
2022-12-20T23:17:43.637Z,96204.81
2022-12-20T23:20:29.190Z,96211.94
2022-12-20T23:22:56.424Z,96199.31
2022-12-20T23:25:22.883Z,96202.19
2022-12-20T23:27:49.824Z,96194.94
2022-12-20T23:30:17.803Z,96197.84
2022-12-20T23:32:44.735Z,96191.25
2022-12-20T23:35:12.811Z,96190.16
2022-12-20T23:37:39.524Z,96188.13
2022-12-20T23:40:06.821Z,96182.34
2022-12-20T23:42:33.258Z,96182.75
2022-12-20T23:44:59.703Z,96187.56
2022-12-20T23:47:26.183Z,96184.41
2022-12-20T23:49:52.635Z,96184.53
2022-12-20T23:52:19.110Z,96178.91
2022-12-20T23:54:45.540Z,96175.75
2022-12-20T23:57:12.415Z,96170.69
2022-12-20T23:59:38.929Z,96164.38
